Time;durP1;ratioP1;P1;durP2;ratioP2;P2;SDS_P1;SDS_P2;PMS_P1;PMS_P2;Temp;Humidity;BMP_temperature;BMP_pressure;BME280_temperature;BME280_humidity;BME280_pressure;Samples;Min_cycle;Max_cycle;Signal;HPM_P1;HPM_P2
2022/07/16 00:03:08;;;;;;;3.00;1.97;;;15.40;91.20;;;16.33;72.80;98658.25;4929767;29;20473;-74
2022/07/16 00:05:38;;;;;;;2.10;1.70;;;15.40;91.10;;;16.27;73.37;98661.72;4929611;29;20553;-74
2022/07/16 00:08:09;;;;;;;1.70;1.53;;;15.30;91.30;;;16.24;73.55;98662.13;4930826;29;20466;-74
2022/07/16 00:10:39;;;;;;;5.13;2.00;;;15.30;91.00;;;16.21;73.78;98667.81;4927872;29;20482;-74
2022/07/16 00:13:09;;;;;;;9.20;2.00;;;15.30;90.90;;;16.14;74.04;98661.72;4930551;29;20978;-74
2022/07/16 00:15:39;;;;;;;2.53;1.90;;;15.30;90.90;;;16.13;74.53;98664.59;4928818;29;20467;-74
2022/07/16 00:20:55;;;;;;;3.20;1.63;;;15.20;91.30;;;16.06;74.94;98664.63;4931116;29;20474;-74
2022/07/16 00:23:26;;;;;;;2.70;2.00;;;15.20;91.30;;;16.03;75.02;98665.03;4929988;29;20463;-74
2022/07/16 00:25:56;;;;;;;2.57;1.83;;;15.20;91.10;;;15.98;75.53;98667.47;4930609;29;20459;-74
2022/07/16 00:28:26;;;;;;;4.40;1.70;;;15.20;91.10;;;15.91;76.17;98661.38;4928315;29;20474;-75
2022/07/16 00:30:56;;;;;;;4.87;2.20;;;15.00;91.50;;;15.82;76.67;98667.91;4929513;29;20474;-74
2022/07/16 00:33:26;;;;;;;2.67;1.87;;;15.00;91.40;;;15.80;77.03;98667.28;4931566;29;20521;-74
2022/07/16 00:35:56;;;;;;;3.70;2.03;;;14.90;91.40;;;15.76;77.17;98663.47;4932253;29;20846;-74
2022/07/16 00:38:27;;;;;;;3.53;1.93;;;14.90;91.60;;;15.72;77.47;98656.97;4928499;29;20458;-74
2022/07/16 00:40:56;;;;;;;2.20;2.00;;;14.80;92.00;;;15.69;77.50;98655.53;4931453;29;20478;-74
2022/07/16 00:43:27;;;;;;;3.83;2.13;;;14.80;91.80;;;15.70;77.54;98651.06;4931650;29;21015;-74
2022/07/16 00:45:56;;;;;;;2.73;1.80;;;14.70;91.80;;;15.63;78.16;98659.00;4930985;29;20474;-74
2022/07/16 00:48:30;;;;;;;7.30;1.63;;;14.80;91.70;;;15.64;78.01;98651.91;4929781;29;20473;-74
2022/07/16 00:51:00;;;;;;;5.43;2.43;;;14.70;92.10;;;15.64;77.94;98651.91;4929975;29;20455;-74
2022/07/16 00:53:32;;;;;;;6.13;1.90;;;14.70;91.60;;;15.60;78.33;98651.50;4932248;29;20542;-74
2022/07/16 00:56:03;;;;;;;4.37;2.00;;;14.70;91.70;;;15.52;78.90;98657.78;4930132;29;20447;-74
2022/07/16 00:58:32;;;;;;;2.73;1.90;;;14.60;92.10;;;15.47;79.75;98652.28;4930339;29;20486;-74
2022/07/16 01:01:02;;;;;;;4.13;1.63;;;14.50;92.50;;;15.43;80.03;98650.25;4931696;29;20457;-74
2022/07/16 01:03:33;;;;;;;2.93;2.10;;;14.50;92.20;;;15.40;80.08;98664.66;4929256;29;20538;-74
2022/07/16 01:06:03;;;;;;;3.63;1.93;;;14.50;92.00;;;15.35;80.12;98661.78;4931185;29;20462;-74
2022/07/16 01:08:36;;;;;;;2.07;1.63;;;14.50;92.10;;;15.22;81.11;98664.44;4931640;29;20526;-74
2022/07/16 01:11:10;;;;;;;3.10;2.00;;;14.40;92.20;;;15.25;81.30;98665.84;4928522;29;20474;-74
2022/07/16 01:13:43;;;;;;;3.10;2.00;;;14.40;92.20;;;15.22;81.30;98656.53;4928287;29;20493;-74
2022/07/16 01:16:13;;;;;;;3.50;1.90;;;14.30;92.60;;;15.21;81.51;98661.97;4929907;29;20546;-74
2022/07/16 01:18:45;;;;;;;5.40;2.23;;;14.40;92.20;;;15.16;81.69;98662.59;4930256;29;20514;-74
2022/07/16 01:21:16;;;;;;;7.90;2.10;;;14.30;92.30;;;15.11;81.67;98654.47;4929900;29;20575;-74
2022/07/16 01:23:49;;;;;;;4.80;1.97;;;14.30;92.40;;;15.08;81.79;98658.34;4931081;29;20450;-74
2022/07/16 01:26:19;;;;;;;2.27;1.60;;;14.20;92.40;;;15.02;82.47;98661.78;4930926;29;20439;-74
2022/07/16 01:28:49;;;;;;;2.63;1.50;;;14.20;92.30;;;15.03;82.37;98652.03;4931860;29;20446;-74
2022/07/16 01:31:20;;;;;;;5.33;1.80;;;14.10;92.50;;;14.99;82.65;98656.09;4926387;29;20975;-74
2022/07/16 01:36:33;;;;;;;6.77;2.30;;;14.00;92.90;;;14.99;83.07;98653.47;4923376;29;20463;-74
2022/07/16 01:39:05;;;;;;;4.00;1.63;;;14.00;92.80;;;14.88;83.69;98648.78;4928150;29;20467;-74
2022/07/16 01:41:36;;;;;;;1.77;1.53;;;13.90;93.10;;;14.90;84.02;98649.38;4929626;29;20470;-74
2022/07/16 01:44:07;;;;;;;1.87;1.40;;;13.90;93.20;;;14.92;83.49;98644.72;4927732;29;20549;-74
2022/07/16 01:46:38;;;;;;;4.30;1.70;;;13.90;92.90;;;14.82;83.87;98647.72;4929414;29;20467;-74
2022/07/16 01:49:08;;;;;;;2.33;1.43;;;13.90;92.70;;;14.77;84.50;98642.25;4929247;29;20446;-74
2022/07/16 01:51:40;;;;;;;3.60;1.60;;;13.80;93.10;;;14.76;84.09;98647.72;4928136;29;20459;-74
2022/07/16 01:54:12;;;;;;;2.57;1.67;;;13.80;92.80;;;14.74;84.54;98644.47;4926689;29;20497;-74
2022/07/16 01:56:41;;;;;;;3.47;1.73;;;13.80;93.00;;;14.67;85.26;98648.91;4926843;29;20470;-74
2022/07/16 01:59:12;;;;;;;1.77;1.60;;;13.80;93.20;;;14.63;85.56;98648.50;4929134;29;20498;-74
2022/07/16 02:01:42;;;;;;;6.30;2.53;;;13.70;93.40;;;14.63;85.52;98655.56;4929664;29;20462;-74
2022/07/16 02:04:12;;;;;;;2.70;1.73;;;13.70;93.30;;;14.59;85.90;98650.72;4929801;29;20584;-74
2022/07/16 02:06:43;;;;;;;1.70;1.43;;;13.60;93.40;;;14.57;86.10;98647.47;4930415;29;20458;-74
2022/07/16 02:09:13;;;;;;;5.00;2.00;;;13.60;93.30;;;14.56;86.01;98651.09;4928104;29;20467;-74
2022/07/16 02:11:43;;;;;;;2.70;1.70;;;13.60;93.20;;;14.49;86.20;98644.19;4928788;29;20989;-74
2022/07/16 02:14:12;;;;;;;7.43;2.40;;;13.60;93.00;;;14.43;86.73;98648.44;4929403;29;20552;-74
2022/07/16 02:16:42;;;;;;;4.10;2.10;;;13.60;93.20;;;14.40;87.22;98653.28;4929329;29;20570;-74
2022/07/16 02:19:12;;;;;;;5.33;1.93;;;13.50;93.50;;;14.39;87.47;98654.28;4930698;29;20474;-74
2022/07/16 02:21:41;;;;;;;3.37;1.80;;;13.40;93.70;;;14.36;86.70;98649.41;4928525;29;20474;-74
2022/07/16 02:24:13;;;;;;;5.80;1.50;;;13.40;93.40;;;14.36;87.05;98654.69;4928903;29;20469;-74
2022/07/16 02:26:43;;;;;;;3.47;1.73;;;13.50;93.30;;;14.36;87.07;98652.03;4929312;29;20451;-74
2022/07/16 02:29:13;;;;;;;3.40;1.97;;;13.40;93.60;;;14.33;87.56;98650.59;4929686;29;20466;-74
2022/07/16 02:31:43;;;;;;;3.93;2.07;;;13.30;93.80;;;14.30;87.88;98653.59;4929428;29;20507;-74
2022/07/16 02:34:12;;;;;;;3.83;1.87;;;13.30;93.90;;;14.26;88.07;98655.00;4928928;29;21000;-74
2022/07/16 02:36:42;;;;;;;2.10;1.60;;;13.30;94.00;;;14.24;88.24;98654.38;4930374;29;20658;-74
2022/07/16 02:39:14;;;;;;;2.57;1.90;;;13.20;93.80;;;14.28;88.11;98657.44;4926869;29;20663;-74
2022/07/16 02:41:44;;;;;;;4.90;2.20;;;13.30;93.70;;;14.25;87.79;98650.75;4929786;29;20447;-74
2022/07/16 02:44:13;;;;;;;3.50;1.50;;;13.30;93.60;;;14.25;87.74;98653.38;4927905;29;20471;-74
2022/07/16 02:46:43;;;;;;;5.23;1.93;;;13.30;93.60;;;14.21;88.09;98653.94;4928895;29;20469;-74
2022/07/16 02:49:13;;;;;;;2.67;1.83;;;13.30;93.60;;;14.15;88.48;98663.44;4926117;29;20501;-76
2022/07/16 02:51:42;;;;;;;2.20;1.50;;;13.30;93.60;;;14.04;89.21;98659.53;4927628;29;20470;-74
2022/07/16 02:54:13;;;;;;;4.80;1.60;;;13.20;93.70;;;13.98;90.23;98646.34;4929220;29;20918;-74
2022/07/16 02:56:44;;;;;;;4.60;1.57;;;13.10;94.20;;;14.00;90.36;98649.59;4928031;29;20486;-74
2022/07/16 02:59:13;;;;;;;3.30;1.50;;;13.10;94.20;;;13.97;90.42;98653.44;4929880;29;20462;-74
2022/07/16 03:01:42;;;;;;;7.90;2.00;;;13.00;94.10;;;13.93;90.67;98651.38;4927340;29;20594;-74
2022/07/16 03:04:13;;;;;;;3.30;1.87;;;13.00;94.20;;;13.91;90.81;98659.47;4928625;29;21044;-74
2022/07/16 03:06:44;;;;;;;5.97;1.70;;;12.90;94.30;;;13.91;90.47;98656.03;4928649;29;20956;-74
2022/07/16 03:09:15;;;;;;;3.30;1.97;;;13.00;94.00;;;13.84;91.06;98657.78;4929619;29;20482;-75
2022/07/16 03:11:46;;;;;;;13.73;1.73;;;12.90;94.20;;;13.75;91.72;98651.03;4928474;29;20469;-78
2022/07/16 03:14:17;;;;;;;2.50;1.90;;;12.90;94.30;;;13.73;91.61;98650.44;4927616;29;20498;-74
2022/07/16 03:16:47;;;;;;;7.43;1.50;;;12.90;93.90;;;13.69;92.13;98657.06;4929019;29;20466;-74
2022/07/16 03:19:16;;;;;;;2.53;1.40;;;12.90;94.10;;;13.69;92.38;98652.63;4927308;29;20505;-79
2022/07/16 03:21:45;;;;;;;4.40;1.50;;;12.80;94.60;;;13.70;92.18;98659.53;4926925;29;20895;-74
2022/07/16 03:24:17;;;;;;;2.30;1.80;;;12.80;94.10;;;13.69;91.78;98657.88;4924618;29;20467;-74
2022/07/16 03:26:48;;;;;;;3.43;1.70;;;12.80;94.30;;;13.64;92.30;98659.47;4929744;29;20489;-74
2022/07/16 03:29:19;;;;;;;2.50;1.77;;;12.70;94.40;;;13.58;93.37;98661.84;4923913;29;20459;-82
2022/07/16 03:31:48;;;;;;;4.80;2.73;;;12.50;94.80;;;13.60;92.91;98665.13;4924264;29;20462;-75
2022/07/16 03:34:19;;;;;;;4.40;1.60;;;12.60;94.40;;;13.59;92.89;98657.41;4926406;29;20502;-75
2022/07/16 03:36:48;;;;;;;6.93;1.80;;;12.70;94.50;;;13.55;93.14;98664.06;4926624;29;20529;-74
2022/07/16 03:39:18;;;;;;;2.80;1.80;;;12.60;94.50;;;13.53;93.30;98659.00;4925595;29;20989;-74
2022/07/16 03:41:48;;;;;;;2.03;1.60;;;12.60;94.40;;;13.45;93.83;98661.75;4927623;29;20473;-74
2022/07/16 03:44:17;;;;;;;4.60;1.87;;;12.60;94.60;;;13.40;94.71;98664.13;4927864;29;20466;-74
2022/07/16 03:46:47;;;;;;;2.77;1.60;;;12.40;95.00;;;13.42;94.54;98661.31;4928715;29;20498;-74
2022/07/16 03:49:17;;;;;;;5.33;1.93;;;12.40;94.90;;;13.42;94.16;98669.22;4928631;29;20840;-74
2022/07/16 03:51:47;;;;;;;4.63;1.70;;;12.50;94.70;;;13.38;94.13;98660.06;4928756;29;20485;-78
2022/07/16 03:54:18;;;;;;;5.80;1.90;;;12.50;94.80;;;13.37;94.54;98664.50;4930100;29;20494;-74
2022/07/16 03:56:47;;;;;;;2.60;1.60;;;12.40;94.90;;;13.37;94.43;98654.00;4931440;29;20477;-74
2022/07/16 03:59:17;;;;;;;2.23;1.50;;;12.40;95.00;;;13.31;95.96;98653.94;4931717;29;20486;-74
2022/07/16 04:01:47;;;;;;;7.10;2.07;;;12.20;95.20;;;13.30;95.90;98658.38;4931821;29;20975;-79
2022/07/16 04:04:16;;;;;;;3.00;1.97;;;12.30;95.20;;;13.27;95.84;98666.66;4932196;29;20588;-74
2022/07/16 04:06:45;;;;;;;4.00;1.53;;;12.30;95.00;;;13.25;96.47;98666.03;4931721;29;20450;-74
2022/07/16 04:09:15;;;;;;;2.23;1.80;;;12.20;95.30;;;13.25;96.93;98671.28;4932280;29;20472;-74
2022/07/16 04:11:46;;;;;;;2.60;1.50;;;12.20;95.50;;;13.23;96.70;98668.03;4932352;29;20489;-75
2022/07/16 04:14:16;;;;;;;3.70;1.50;;;12.20;95.30;;;13.19;96.64;98666.75;4932773;29;20498;-75
2022/07/16 04:16:46;;;;;;;2.40;1.77;;;12.20;95.30;;;13.19;97.16;98671.22;4933853;29;20832;-75
2022/07/16 04:19:16;;;;;;;1.50;1.30;;;12.20;95.40;;;13.19;96.67;98661.50;4934031;29;20497;-75
2022/07/16 04:21:46;;;;;;;3.00;1.60;;;12.20;95.20;;;13.24;96.60;98667.03;4932653;29;20454;-75
2022/07/16 04:24:16;;;;;;;5.33;1.47;;;12.30;95.30;;;13.23;96.71;98665.41;4931328;29;20501;-75
2022/07/16 04:26:48;;;;;;;2.20;1.63;;;12.20;95.30;;;13.25;96.51;98670.47;4933422;29;20976;-75
2022/07/16 04:29:18;;;;;;;3.40;1.53;;;12.30;95.40;;;13.24;96.99;98669.66;4934202;29;20462;-75
2022/07/16 04:31:49;;;;;;;2.83;1.60;;;12.20;95.50;;;13.22;96.97;98666.41;4931939;29;20454;-75
2022/07/16 04:34:19;;;;;;;3.50;1.60;;;12.20;95.40;;;13.25;97.46;98681.78;4933071;29;20490;-75
2022/07/16 04:36:50;;;;;;;3.17;2.10;;;12.20;95.70;;;13.27;97.05;98673.72;4932844;29;21331;-75
2022/07/16 04:39:28;;;;;;;7.37;1.80;;;12.30;95.50;;;13.31;96.94;98675.78;4934028;29;20455;-75
2022/07/16 04:42:00;;;;;;;2.23;1.80;;;12.30;95.50;;;13.32;96.98;98682.66;4932657;29;20810;-75
2022/07/16 04:44:29;;;;;;;2.47;1.57;;;12.30;95.40;;;13.36;97.04;98680.47;4931972;29;20541;-75
2022/07/16 04:46:59;;;;;;;2.80;1.67;;;12.40;95.50;;;13.38;96.79;98675.84;4915448;29;20519;-75
2022/07/16 04:49:29;;;;;;;4.00;1.70;;;12.40;95.80;;;13.44;96.85;98683.78;4932350;29;20517;-75
2022/07/16 04:51:58;;;;;;;4.90;1.70;;;12.40;95.50;;;13.47;96.75;98680.75;4932073;29;20950;-75
2022/07/16 04:54:28;;;;;;;4.50;2.00;;;12.50;95.50;;;13.52;96.54;98682.84;4930374;29;20530;-75
2022/07/16 04:56:59;;;;;;;1.80;1.40;;;12.40;95.30;;;13.51;96.13;98684.63;4932604;29;20502;-75
2022/07/16 04:59:29;;;;;;;1.97;1.63;;;12.50;95.20;;;13.58;96.13;98685.50;4933321;29;20446;-75
2022/07/16 05:04:44;;;;;;;2.13;1.50;;;12.60;95.40;;;13.63;95.43;98686.75;4933016;29;20450;-75
2022/07/16 05:07:13;;;;;;;2.40;1.80;;;12.70;95.10;;;13.67;95.55;98678.31;4933257;29;20450;-74
2022/07/16 05:09:42;;;;;;;7.20;2.10;;;12.60;95.10;;;13.68;95.20;98684.34;4934411;29;20475;-75
2022/07/16 05:12:12;;;;;;;2.90;1.67;;;12.70;95.20;;;13.68;95.40;98686.97;4932636;29;21297;-75
2022/07/16 05:14:43;;;;;;;2.63;1.60;;;12.70;95.20;;;13.73;95.43;98689.88;4930444;29;20479;-75
2022/07/16 05:17:12;;;;;;;2.80;1.40;;;12.70;95.50;;;13.74;94.90;98688.88;4932559;29;20880;-75
2022/07/16 05:19:43;;;;;;;2.50;1.60;;;12.80;95.00;;;13.77;94.60;98683.22;4932786;29;20953;-74
2022/07/16 05:22:14;;;;;;;3.33;1.93;;;12.80;95.00;;;13.79;94.54;98689.09;4932725;29;20466;-75
2022/07/16 05:24:46;;;;;;;3.70;1.50;;;12.80;95.00;;;13.82;94.07;98693.97;4932558;29;20454;-75
2022/07/16 05:27:17;;;;;;;2.90;1.80;;;12.90;94.70;;;13.82;94.27;98696.59;4933420;29;20517;-75
2022/07/16 05:29:47;;;;;;;2.53;1.27;;;12.90;94.70;;;13.83;94.24;98696.41;4932611;29;20454;-75
2022/07/16 05:32:17;;;;;;;4.30;1.87;;;13.00;94.80;;;13.84;94.63;98699.84;4933166;29;20462;-75
2022/07/16 05:34:49;;;;;;;6.50;2.00;;;13.00;94.80;;;13.88;94.58;98698.47;4931612;29;20557;-75
2022/07/16 05:37:19;;;;;;;2.73;1.83;;;13.00;94.80;;;13.91;94.39;98698.09;4931614;29;20458;-75
2022/07/16 05:39:49;;;;;;;4.23;1.87;;;13.00;94.80;;;13.95;94.28;98700.13;4931907;29;20447;-75
2022/07/16 05:42:20;;;;;;;3.87;2.10;;;13.10;94.80;;;14.01;94.04;98691.50;4931447;29;20469;-75
2022/07/16 05:44:49;;;;;;;2.10;1.83;;;13.10;94.90;;;14.07;93.91;98700.41;4931254;29;20444;-75
2022/07/16 05:47:19;;;;;;;3.13;2.17;;;13.10;94.90;;;14.12;93.47;98705.91;4932009;29;20825;-75
2022/07/16 05:49:48;;;;;;;3.67;2.00;;;13.20;95.00;;;14.18;94.06;98710.41;4932127;29;20478;-75
2022/07/16 05:52:19;;;;;;;7.90;1.70;;;13.20;95.10;;;14.24;94.20;98703.53;4931331;29;20453;-75
2022/07/16 05:54:48;;;;;;;3.27;1.77;;;13.20;95.30;;;14.30;94.28;98708.84;4930012;29;21315;-75
2022/07/16 05:57:18;;;;;;;2.27;1.77;;;13.30;95.30;;;14.35;93.49;98711.75;4930492;29;20451;-75
2022/07/16 05:59:47;;;;;;;2.30;1.60;;;13.40;94.90;;;14.41;93.36;98708.31;4930459;29;20871;-75
2022/07/16 06:02:18;;;;;;;2.10;1.47;;;13.50;94.90;;;14.45;93.47;98706.94;4930502;29;20465;-75
2022/07/16 06:04:47;;;;;;;2.37;1.70;;;13.60;94.80;;;14.50;93.55;98715.06;4930520;29;20495;-75
2022/07/16 06:07:18;;;;;;;2.47;1.53;;;13.60;94.80;;;14.57;93.79;98709.84;4931495;29;20457;-75
2022/07/16 06:09:48;;;;;;;2.40;1.67;;;13.60;95.10;;;14.63;93.52;98713.50;4931128;29;20489;-75
2022/07/16 06:12:20;;;;;;;1.70;1.40;;;13.70;94.90;;;14.69;93.46;98712.69;4931148;29;20451;-75
2022/07/16 06:14:49;;;;;;;2.03;1.50;;;13.80;95.10;;;14.77;93.42;98717.81;4930831;29;20482;-75
2022/07/16 06:17:19;;;;;;;4.90;2.10;;;13.80;95.10;;;14.83;93.68;98712.56;4931298;29;20463;-75
2022/07/16 06:19:50;;;;;;;3.43;2.17;;;13.90;95.20;;;14.89;93.79;98705.72;4931074;29;20949;-75
2022/07/16 06:22:20;;;;;;;2.47;1.50;;;13.90;95.20;;;14.95;93.60;98703.09;4931987;29;20457;-75
2022/07/16 06:24:49;;;;;;;4.80;1.53;;;13.90;95.00;;;15.02;93.50;98703.09;4931347;29;20463;-75
2022/07/16 06:27:21;;;;;;;4.20;1.57;;;14.00;95.20;;;15.08;93.62;98708.38;4931280;29;20542;-75
2022/07/16 06:29:51;;;;;;;11.00;1.60;;;14.10;95.10;;;15.15;93.05;98707.56;4931223;29;20466;-75
2022/07/16 06:32:20;;;;;;;3.67;1.70;;;14.20;94.90;;;15.22;92.80;98698.69;4931603;29;20475;-75
2022/07/16 06:34:49;;;;;;;2.47;2.00;;;14.20;94.90;;;15.28;92.43;98703.16;4931465;29;20498;-75
2022/07/16 06:37:19;;;;;;;3.20;1.57;;;14.30;94.90;;;15.34;92.20;98697.06;4930609;29;20506;-75
2022/07/16 06:39:47;;;;;;;2.27;1.60;;;14.40;95.00;;;15.41;92.08;98697.09;4929868;29;20981;-75
2022/07/16 06:42:16;;;;;;;5.47;1.57;;;14.50;95.20;;;15.47;91.96;98691.81;4931079;29;20470;-75
2022/07/16 06:44:47;;;;;;;2.50;1.57;;;14.50;94.90;;;15.53;91.89;98691.03;4929994;29;20501;-75
2022/07/16 06:47:17;;;;;;;4.60;1.90;;;14.60;95.00;;;15.60;91.99;98688.41;4931094;29;20455;-75
2022/07/16 06:49:46;;;;;;;1.93;1.43;;;14.60;95.20;;;15.66;91.98;98692.03;4931005;29;20446;-75
2022/07/16 06:52:16;;;;;;;1.93;1.33;;;14.70;95.00;;;15.73;91.61;98690.22;4929311;29;20806;-75
2022/07/16 06:54:46;;;;;;;3.20;1.60;;;14.80;95.00;;;15.79;91.45;98681.50;4930425;29;20454;-75
2022/07/16 06:57:16;;;;;;;1.50;1.40;;;14.90;95.10;;;15.86;91.02;98684.94;4930907;29;20463;-75
2022/07/16 06:59:49;;;;;;;10.13;1.93;;;15.00;94.70;;;15.92;90.79;98689.41;4929349;29;20458;-75
2022/07/16 07:02:19;;;;;;;2.40;1.90;;;15.00;94.60;;;15.99;90.37;98691.00;4931795;29;20439;-75
2022/07/16 07:04:49;;;;;;;1.60;1.30;;;15.10;94.60;;;16.07;90.38;98689.97;4930590;29;20514;-75
2022/07/16 07:07:18;;;;;;;3.00;1.50;;;15.10;94.50;;;16.14;90.51;98693.41;4930012;29;20513;-75
2022/07/16 07:09:49;;;;;;;2.47;1.60;;;15.20;94.80;;;16.20;90.63;98689.97;4928287;29;20863;-75
2022/07/16 07:12:19;;;;;;;5.40;1.60;;;15.30;94.80;;;16.27;90.81;98697.84;4929237;29;20466;-75
2022/07/16 07:14:50;;;;;;;3.43;1.70;;;15.40;94.70;;;16.36;91.25;98692.13;4929949;29;20550;-75
2022/07/16 07:17:19;;;;;;;2.17;1.60;;;15.50;94.70;;;16.46;91.99;98692.50;4929697;29;20451;-75
2022/07/16 07:19:48;;;;;;;3.80;1.57;;;15.60;95.20;;;16.55;91.18;98693.94;4930532;29;20510;-75
2022/07/16 07:22:17;;;;;;;5.03;2.40;;;15.70;94.70;;;16.67;87.40;98688.00;4929571;29;20450;-75
2022/07/16 07:24:47;;;;;;;2.53;1.67;;;15.90;94.00;;;16.80;85.94;98683.44;4929799;29;20469;-75
2022/07/16 07:27:19;;;;;;;2.07;1.30;;;16.10;93.50;;;16.92;84.84;98686.25;4930270;29;20500;-75
2022/07/16 07:29:50;;;;;;;5.00;1.60;;;16.20;93.40;;;17.03;83.43;98685.59;4931126;29;20511;-75
2022/07/16 07:32:19;;;;;;;2.57;1.60;;;16.30;93.10;;;17.12;82.32;98689.59;4933550;29;20988;-75
2022/07/16 07:34:50;;;;;;;2.47;1.60;;;16.40;92.70;;;17.25;79.95;98681.56;4935358;29;20470;-75
2022/07/16 07:37:20;;;;;;;17.23;2.03;;;16.50;92.10;;;17.39;77.99;98685.72;4932308;29;20497;-75
2022/07/16 07:39:55;;;;;;;4.40;1.97;;;16.80;91.90;;;17.48;78.11;98678.34;4935136;29;20489;-75
2022/07/16 07:42:25;;;;;;;2.00;1.53;;;16.80;91.90;;;17.55;77.83;98672.00;4933770;29;20462;-75
2022/07/16 07:44:56;;;;;;;3.90;1.60;;;16.80;91.90;;;17.65;77.45;98673.38;4935240;29;20462;-75
2022/07/16 07:47:27;;;;;;;2.73;1.83;;;16.90;91.90;;;17.74;76.53;98677.34;4933515;29;21306;-75
2022/07/16 07:49:57;;;;;;;5.20;1.50;;;17.00;91.80;;;17.79;75.42;98678.34;4933687;29;20981;-75
2022/07/16 07:52:29;;;;;;;2.90;2.00;;;17.10;91.50;;;17.88;74.72;98677.00;4933837;29;20598;-75
2022/07/16 07:54:59;;;;;;;2.80;1.50;;;17.20;91.40;;;17.99;74.53;98680.78;4932918;29;20550;-75
2022/07/16 07:57:28;;;;;;;3.97;1.80;;;17.40;91.40;;;18.06;74.56;98684.19;4934404;29;20581;-75
2022/07/16 07:59:58;;;;;;;1.77;1.30;;;17.30;91.30;;;18.15;73.26;98674.94;4934397;29;20464;-75
2022/07/16 08:02:27;;;;;;;2.67;1.50;;;17.40;90.90;;;18.21;73.50;98682.00;4934103;29;20474;-75
2022/07/16 08:04:58;;;;;;;2.03;1.53;;;17.50;91.00;;;18.31;73.21;98687.59;4931835;29;20844;-75
2022/07/16 08:07:29;;;;;;;4.20;1.77;;;17.60;91.10;;;18.43;71.42;98691.09;4933758;29;20490;-75
2022/07/16 08:09:58;;;;;;;5.07;1.97;;;17.70;90.60;;;18.52;70.51;98687.16;4934196;29;20443;-75
2022/07/16 08:12:27;;;;;;;2.73;1.70;;;17.90;90.60;;;18.61;69.94;98690.31;4931798;29;21072;-75
2022/07/16 08:14:56;;;;;;;4.87;2.17;;;17.90;90.30;;;18.69;70.11;98683.91;4932882;29;20462;-75
2022/07/16 08:17:26;;;;;;;3.80;1.87;;;18.00;90.60;;;18.75;70.10;98690.97;4932864;29;21005;-75
2022/07/16 08:19:56;;;;;;;3.83;2.13;;;18.00;90.60;;;18.81;69.91;98687.44;4931166;29;21007;-75
2022/07/16 08:22:25;;;;;;;2.40;1.50;;;18.10;90.60;;;18.85;70.51;98677.97;4931384;29;20881;-75
2022/07/16 08:27:41;;;;;;;6.30;1.60;;;18.30;90.20;;;18.99;68.29;98680.22;4932752;29;20493;-75
2022/07/16 08:30:12;;;;;;;4.60;1.97;;;18.30;90.20;;;19.02;68.82;98684.31;4933279;29;20454;-75
2022/07/16 08:32:44;;;;;;;5.83;1.97;;;18.40;90.40;;;19.08;68.93;98681.56;4932830;29;20451;-75
2022/07/16 08:35:14;;;;;;;5.90;2.87;;;18.30;90.40;;;19.14;68.53;98682.47;4932704;29;20964;-75
2022/07/16 08:37:45;;;;;;;4.83;2.00;;;18.50;90.40;;;19.20;67.76;98686.06;4933094;29;20521;-75
2022/07/16 08:40:18;;;;;;;2.87;1.47;;;18.50;90.10;;;19.26;66.46;98679.88;4933537;29;20443;-75
2022/07/16 08:42:48;;;;;;;2.40;1.60;;;18.60;89.40;;;19.30;65.85;98681.03;4932586;29;20478;-75
2022/07/16 08:45:21;;;;;;;3.53;1.73;;;18.50;89.30;;;19.37;65.07;98682.53;4933571;29;20493;-75
2022/07/16 08:47:53;;;;;;;2.77;1.60;;;18.60;88.90;;;19.39;64.21;98684.97;4932393;29;20473;-75
2022/07/16 08:50:24;;;;;;;2.17;1.63;;;18.60;88.80;;;19.47;63.22;98684.69;4932930;29;20466;-75
2022/07/16 08:52:54;;;;;;;4.57;1.90;;;18.90;88.20;;;19.52;62.15;98680.28;4932992;29;20514;-75
2022/07/16 08:55:26;;;;;;;2.97;1.50;;;18.80;87.70;;;19.61;62.48;98685.28;4931070;29;20459;-75
2022/07/16 08:57:57;;;;;;;2.50;2.07;;;18.90;87.90;;;19.69;62.71;98674.31;4933162;29;20880;-75
2022/07/16 09:00:28;;;;;;;2.87;1.60;;;19.10;87.90;;;19.75;62.04;98681.38;4932663;29;20461;-75
2022/07/16 09:03:00;;;;;;;2.33;1.80;;;19.10;87.40;;;19.79;62.36;98671.88;4931064;29;20461;-75
2022/07/16 09:05:31;;;;;;;3.53;1.87;;;19.00;88.00;;;19.81;62.78;98673.28;4930959;29;20957;-75
2022/07/16 09:08:00;;;;;;;3.27;1.80;;;19.00;88.40;;;19.83;62.39;98676.50;4932905;29;20497;-75
2022/07/16 09:10:36;;;;;;;4.40;1.50;;;19.20;88.00;;;19.87;62.17;98682.16;4930974;29;20553;-75
2022/07/16 09:13:06;;;;;;;2.80;1.43;;;19.20;87.90;;;19.88;62.71;98681.13;4932374;29;20553;-75
2022/07/16 09:15:38;;;;;;;2.37;1.57;;;19.30;88.40;;;19.93;62.33;98683.88;4932256;29;20879;-75
2022/07/16 09:18:21;;;;;;;4.43;2.53;;;19.30;88.10;;;19.98;62.08;98700.75;4932510;29;21379;-75
2022/07/16 09:20:54;;;;;;;3.87;1.97;;;19.30;87.50;;;20.00;60.57;98682.75;4929193;29;20462;-75
2022/07/16 09:23:31;;;;;;;4.13;2.30;;;19.30;86.80;;;20.06;60.19;98687.13;4932239;29;20450;-75
2022/07/16 09:26:10;;;;;;;2.97;1.60;;;19.50;86.50;;;20.13;59.62;98691.53;4932040;29;20463;-75
2022/07/16 09:28:43;;;;;;;8.70;1.80;;;19.50;86.30;;;20.18;59.38;98686.31;4932394;29;20466;-75
2022/07/16 09:31:32;;;;;;;5.20;2.10;;;19.50;85.80;;;20.22;59.29;98688.28;4932735;29;20455;-75
2022/07/16 09:34:06;;;;;;;11.90;2.10;;;19.40;86.60;;;20.30;59.63;98687.97;4932250;29;20499;-75
2022/07/16 09:36:37;;;;;;;2.80;1.67;;;19.70;86.60;;;20.36;59.86;98694.16;4931994;29;20501;-75
2022/07/16 09:39:09;;;;;;;3.30;1.90;;;19.70;86.50;;;20.42;58.82;98698.53;4932709;29;20459;-75
2022/07/16 09:41:48;;;;;;;5.60;2.10;;;19.70;85.40;;;20.47;56.89;98698.66;4932671;29;20529;-75
2022/07/16 09:44:20;;;;;;;5.00;2.30;;;19.80;84.30;;;20.55;57.65;98700.94;4931676;29;20458;-75
2022/07/16 09:47:07;;;;;;;3.97;1.60;;;19.90;85.10;;;20.62;57.16;98695.53;4931139;29;20506;-75
2022/07/16 09:49:41;;;;;;;3.90;1.90;;;20.00;84.80;;;20.66;57.76;98702.75;4931755;29;20462;-75
2022/07/16 09:52:31;;;;;;;3.67;1.70;;;20.00;85.60;;;20.72;56.64;98696.50;4931039;29;21032;-75
2022/07/16 09:55:03;;;;;;;2.77;1.70;;;20.00;84.40;;;20.76;54.68;98691.53;4930687;29;20470;-75
2022/07/16 09:57:32;;;;;;;2.37;1.60;;;20.10;83.40;;;20.82;55.48;98686.09;4931168;29;20521;-75
2022/07/16 10:00:02;;;;;;;7.03;1.97;;;20.10;83.40;;;20.91;55.80;98697.13;4932220;29;20455;-75
2022/07/16 10:02:34;;;;;;;2.80;1.73;;;20.30;84.00;;;20.96;55.14;98694.59;4932110;29;20447;-75
2022/07/16 10:05:06;;;;;;;2.33;1.40;;;20.30;83.10;;;21.04;53.81;98704.81;4929987;29;20910;-75
2022/07/16 10:07:37;;;;;;;2.87;1.80;;;20.30;82.50;;;21.11;53.49;98700.19;4930108;29;20965;-75
2022/07/16 10:10:12;;;;;;;2.43;1.70;;;20.40;82.00;;;21.19;52.66;98702.50;4929893;29;20470;-75
2022/07/16 10:12:42;;;;;;;2.67;1.53;;;20.50;81.60;;;21.28;52.17;98690.41;4930298;29;20463;-75
2022/07/16 10:15:13;;;;;;;4.83;1.80;;;20.60;81.30;;;21.36;52.56;98697.19;4931829;29;20486;-75
2022/07/16 10:17:44;;;;;;;3.57;1.73;;;20.80;81.50;;;21.41;51.76;98695.44;4930883;29;20643;-75
2022/07/16 10:20:20;;;;;;;7.03;2.13;;;20.90;80.80;;;21.47;51.96;98691.81;4930939;29;20494;-75
2022/07/16 10:22:51;;;;;;;4.33;1.43;;;20.90;81.10;;;21.53;50.94;98696.16;4930165;29;21418;-75
2022/07/16 10:25:29;;;;;;;3.40;1.80;;;20.90;80.20;;;21.61;51.24;98702.94;4932115;29;20463;-75
2022/07/16 10:27:59;;;;;;;4.30;1.50;;;20.90;80.30;;;21.75;50.43;98698.09;4931217;29;20466;-75
2022/07/16 10:30:30;;;;;;;2.37;1.63;;;21.00;79.60;;;21.82;49.59;98704.88;4932460;29;20451;-75
2022/07/16 10:33:18;;;;;;;2.30;1.67;;;21.20;78.80;;;21.88;49.92;98700.44;4931950;29;20477;-75
2022/07/16 10:35:50;;;;;;;7.37;1.60;;;21.20;79.10;;;21.92;49.23;98699.75;4928662;29;20462;-75
2022/07/16 10:38:24;;;;;;;5.33;2.10;;;21.30;78.80;;;22.00;49.05;98698.53;4930695;29;20601;-75
2022/07/16 10:41:09;;;;;;;7.13;1.87;;;21.30;78.70;;;22.01;49.19;98700.13;4929868;29;20531;-75
2022/07/16 10:43:39;;;;;;;2.60;1.73;;;21.30;79.00;;;22.08;49.03;98700.75;4929423;29;20474;-75
2022/07/16 10:46:11;;;;;;;2.23;1.47;;;21.60;79.00;;;22.14;49.66;98705.13;4930766;29;20470;-75
2022/07/16 10:49:16;;;;;;;2.63;1.90;;;21.50;79.30;;;22.26;49.24;98697.81;4929431;29;20454;-75